Hermosillo, México

7:46 AM MST en Marzo 30, 2017 (GMT -0700)
Campo El Tejaban | | Change Station

Alt 374 ft 28.88 °N, 111.21 °W | Updated 9 seconds ago

Despejado
Despejado
62.5 ° F
Sensación térmica 62.5 ° F
N
0.0
Viento Variable Viento desde Norte
Gusts 0.0 mph

Hoy
Alta -- | Baja -- ° F
--% Posibilidad de precipitaciones
Ayer
Alta -- | Baja -- ° F
Precip. -- pul
Presión 29.95 pul
Visibilidad 10.0 Millas
Nubes Despejado
Punto de rocío 35 ° F
Humedad 36%
Precipitaciones 0.00 pul
Espesor de la nieve No disponible.
6:16 AM 6:41 PM
Creciente, 9% visible
METAR MMHO 301340Z 00000KT 10SM SKC 16/02 A2995 RMK HZY
Presión 29.95 pul
Visibilidad 10.0 Millas
Nubes Despejado
Punto de rocío 35 ° F
Humedad 36%
Precipitaciones 0.00 pul
Espesor de la nieve No disponible.
6:16 AM 6:41 PM
Creciente, 9% visible
METAR MMHO 301340Z 00000KT 10SM SKC 16/02 A2995 RMK HZY

Get Severe Weather Alerts

Thanks for signing up!

Be on the lookout for a verification email in your inbox.

You'll start receiving the daily forecast at 8 AM.

×

10-Day Weather Forecast

No radar image for this location.
×

Almanac

Astronomía

Mar. 30, 2017 Salida Puesta
Hora real
Crepúsculo civil
Crepúsculo náutico
Crepúsculo astronómico
Luna
Horas de luz
Horas de luz
Tomorrow will be .
, % of the Moon is Illuminated

Extremos de hoy

Máximos del país Bajas del país

Community

WunderPhotos

Upload Photos

1,962,540 ¡fotos cargadas!

WunderBlog® & News

Nearby

Calidad del aire

  Calidad del aire Índice AQ Contaminante
Not available.

Grosos de nieve

Estación Profundido Altura

Actividad de terremotos

Ciudad Distance Mag. Tiempo y dato
Magnitud mínima muestra es 2,5.

Actividad de terremotos

Ciudad Distance Mag. Tiempo y dato
Magnitud mínima muestra es 2,5.

Temperaturas de aguas costeras

Lugar Temperatura

Stations

Estaciones meteorológicas cercanas

Ubicación de la estación Temp. Vientos helados Punto de rocío Humedad Viento Precip. Alt Actualizado Tipo